sensor_id;sensor_type;location;lat;lon;timestamp;P1;durP1;ratioP1;P2;durP2;ratioP2
19547;SDS011;9919;58.014;11.826;2023-03-19T00:01:41;5.70;;;2.83;;
19547;SDS011;9919;58.014;11.826;2023-03-19T00:03:42;4.40;;;3.28;;
19547;SDS011;9919;58.014;11.826;2023-03-19T00:05:52;3.63;;;3.08;;
19547;SDS011;9919;58.014;11.826;2023-03-19T00:07:54;4.18;;;2.50;;
19547;SDS011;9919;58.014;11.826;2023-03-19T00:09:55;4.50;;;2.80;;
19547;SDS011;9919;58.014;11.826;2023-03-19T00:11:57;4.72;;;2.95;;
19547;SDS011;9919;58.014;11.826;2023-03-19T00:13:58;2.72;;;2.30;;
19547;SDS011;9919;58.014;11.826;2023-03-19T00:16:01;2.78;;;2.45;;
19547;SDS011;9919;58.014;11.826;2023-03-19T00:18:02;4.25;;;2.78;;
19547;SDS011;9919;58.014;11.826;2023-03-19T00:20:05;4.60;;;3.10;;
19547;SDS011;9919;58.014;11.826;2023-03-19T00:22:07;3.85;;;2.83;;
19547;SDS011;9919;58.014;11.826;2023-03-19T00:24:08;2.72;;;2.35;;
19547;SDS011;9919;58.014;11.826;2023-03-19T00:26:10;4.85;;;2.78;;
19547;SDS011;9919;58.014;11.826;2023-03-19T00:28:13;3.60;;;2.30;;
19547;SDS011;9919;58.014;11.826;2023-03-19T00:30:14;5.25;;;2.53;;
19547;SDS011;9919;58.014;11.826;2023-03-19T00:32:16;5.45;;;3.50;;
19547;SDS011;9919;58.014;11.826;2023-03-19T00:34:17;2.75;;;2.33;;
19547;SDS011;9919;58.014;11.826;2023-03-19T00:36:19;5.00;;;2.75;;
19547;SDS011;9919;58.014;11.826;2023-03-19T00:38:20;3.78;;;2.78;;
19547;SDS011;9919;58.014;11.826;2023-03-19T00:40:22;5.82;;;2.88;;
19547;SDS011;9919;58.014;11.826;2023-03-19T00:42:24;3.80;;;2.97;;
19547;SDS011;9919;58.014;11.826;2023-03-19T00:44:26;5.63;;;2.78;;
19547;SDS011;9919;58.014;11.826;2023-03-19T00:46:27;4.15;;;2.92;;
19547;SDS011;9919;58.014;11.826;2023-03-19T00:48:28;2.85;;;2.35;;
19547;SDS011;9919;58.014;11.826;2023-03-19T00:50:30;4.53;;;2.55;;
19547;SDS011;9919;58.014;11.826;2023-03-19T00:52:32;2.78;;;2.47;;
19547;SDS011;9919;58.014;11.826;2023-03-19T00:54:33;3.75;;;2.55;;
19547;SDS011;9919;58.014;11.826;2023-03-19T00:56:35;3.42;;;2.47;;
19547;SDS011;9919;58.014;11.826;2023-03-19T00:58:36;5.15;;;3.10;;
19547;SDS011;9919;58.014;11.826;2023-03-19T01:00:39;4.97;;;2.60;;
19547;SDS011;9919;58.014;11.826;2023-03-19T01:02:41;4.05;;;2.83;;
19547;SDS011;9919;58.014;11.826;2023-03-19T01:04:43;3.63;;;2.65;;
19547;SDS011;9919;58.014;11.826;2023-03-19T01:06:46;3.97;;;2.60;;
19547;SDS011;9919;58.014;11.826;2023-03-19T01:08:49;3.58;;;2.20;;
19547;SDS011;9919;58.014;11.826;2023-03-19T01:10:50;4.00;;;2.80;;
19547;SDS011;9919;58.014;11.826;2023-03-19T01:12:51;4.45;;;2.95;;
19547;SDS011;9919;58.014;11.826;2023-03-19T01:14:53;3.72;;;2.70;;
19547;SDS011;9919;58.014;11.826;2023-03-19T01:16:54;3.83;;;2.53;;
19547;SDS011;9919;58.014;11.826;2023-03-19T01:18:56;2.80;;;2.40;;
19547;SDS011;9919;58.014;11.826;2023-03-19T01:20:58;3.90;;;2.20;;
19547;SDS011;9919;58.014;11.826;2023-03-19T01:22:59;3.38;;;2.45;;
19547;SDS011;9919;58.014;11.826;2023-03-19T01:25:01;3.15;;;2.40;;
19547;SDS011;9919;58.014;11.826;2023-03-19T01:27:03;2.67;;;2.33;;
19547;SDS011;9919;58.014;11.826;2023-03-19T01:29:05;2.55;;;2.17;;
19547;SDS011;9919;58.014;11.826;2023-03-19T01:31:07;4.47;;;2.58;;
19547;SDS011;9919;58.014;11.826;2023-03-19T01:33:09;3.78;;;2.67;;
19547;SDS011;9919;58.014;11.826;2023-03-19T01:35:10;2.88;;;2.47;;
19547;SDS011;9919;58.014;11.826;2023-03-19T01:37:12;5.65;;;2.70;;
19547;SDS011;9919;58.014;11.826;2023-03-19T01:39:15;3.25;;;2.30;;
19547;SDS011;9919;58.014;11.826;2023-03-19T01:41:16;2.78;;;2.42;;
19547;SDS011;9919;58.014;11.826;2023-03-19T01:43:19;4.03;;;2.38;;
19547;SDS011;9919;58.014;11.826;2023-03-19T01:45:29;3.15;;;2.17;;
19547;SDS011;9919;58.014;11.826;2023-03-19T01:47:35;4.63;;;2.75;;
19547;SDS011;9919;58.014;11.826;2023-03-19T01:49:38;6.47;;;2.70;;
19547;SDS011;9919;58.014;11.826;2023-03-19T01:51:40;2.22;;;1.90;;
19547;SDS011;9919;58.014;11.826;2023-03-19T01:53:44;3.67;;;2.80;;
19547;SDS011;9919;58.014;11.826;2023-03-19T01:55:49;1.95;;;1.55;;
19547;SDS011;9919;58.014;11.826;2023-03-19T01:57:51;3.03;;;2.38;;
19547;SDS011;9919;58.014;11.826;2023-03-19T01:59:55;4.43;;;2.85;;
19547;SDS011;9919;58.014;11.826;2023-03-19T02:02:07;2.95;;;2.13;;
19547;SDS011;9919;58.014;11.826;2023-03-19T02:04:31;4.22;;;2.58;;
19547;SDS011;9919;58.014;11.826;2023-03-19T02:06:34;5.00;;;2.90;;
19547;SDS011;9919;58.014;11.826;2023-03-19T02:08:36;4.40;;;2.35;;
19547;SDS011;9919;58.014;11.826;2023-03-19T02:10:40;5.00;;;3.13;;
19547;SDS011;9919;58.014;11.826;2023-03-19T02:12:42;3.40;;;1.98;;
19547;SDS011;9919;58.014;11.826;2023-03-19T02:14:44;3.55;;;2.53;;
19547;SDS011;9919;58.014;11.826;2023-03-19T02:16:45;4.43;;;3.08;;
19547;SDS011;9919;58.014;11.826;2023-03-19T02:18:48;4.82;;;2.72;;
19547;SDS011;9919;58.014;11.826;2023-03-19T02:23:16;4.47;;;2.75;;
19547;SDS011;9919;58.014;11.826;2023-03-19T02:25:27;3.50;;;2.78;;
19547;SDS011;9919;58.014;11.826;2023-03-19T02:27:36;3.25;;;2.72;;
19547;SDS011;9919;58.014;11.826;2023-03-19T02:29:38;4.70;;;2.30;;
19547;SDS011;9919;58.014;11.826;2023-03-19T02:31:40;8.68;;;2.67;;
19547;SDS011;9919;58.014;11.826;2023-03-19T02:33:42;4.28;;;2.67;;
19547;SDS011;9919;58.014;11.826;2023-03-19T02:35:44;3.58;;;2.25;;
19547;SDS011;9919;58.014;11.826;2023-03-19T02:37:48;5.03;;;2.85;;
19547;SDS011;9919;58.014;11.826;2023-03-19T02:39:57;3.13;;;2.22;;
19547;SDS011;9919;58.014;11.826;2023-03-19T02:41:59;3.60;;;2.30;;
19547;SDS011;9919;58.014;11.826;2023-03-19T02:44:01;4.97;;;2.72;;
19547;SDS011;9919;58.014;11.826;2023-03-19T02:46:04;3.80;;;2.40;;
19547;SDS011;9919;58.014;11.826;2023-03-19T02:48:09;2.92;;;2.20;;
19547;SDS011;9919;58.014;11.826;2023-03-19T02:50:11;4.05;;;2.40;;
19547;SDS011;9919;58.014;11.826;2023-03-19T02:52:13;3.83;;;2.30;;
19547;SDS011;9919;58.014;11.826;2023-03-19T02:54:15;2.80;;;2.20;;
19547;SDS011;9919;58.014;11.826;2023-03-19T02:56:16;3.10;;;2.35;;
19547;SDS011;9919;58.014;11.826;2023-03-19T02:58:18;3.10;;;2.33;;
19547;SDS011;9919;58.014;11.826;2023-03-19T03:00:19;3.05;;;2.42;;
19547;SDS011;9919;58.014;11.826;2023-03-19T03:02:21;3.33;;;2.58;;
19547;SDS011;9919;58.014;11.826;2023-03-19T03:04:22;2.90;;;2.22;;
19547;SDS011;9919;58.014;11.826;2023-03-19T03:06:25;3.15;;;2.30;;
19547;SDS011;9919;58.014;11.826;2023-03-19T03:08:26;4.13;;;2.42;;
19547;SDS011;9919;58.014;11.826;2023-03-19T03:10:28;3.78;;;2.47;;
19547;SDS011;9919;58.014;11.826;2023-03-19T03:12:30;3.33;;;2.55;;
19547;SDS011;9919;58.014;11.826;2023-03-19T03:14:32;4.50;;;2.33;;
19547;SDS011;9919;58.014;11.826;2023-03-19T03:16:34;3.40;;;2.60;;
19547;SDS011;9919;58.014;11.826;2023-03-19T03:18:37;2.72;;;2.53;;
19547;SDS011;9919;58.014;11.826;2023-03-19T03:20:39;5.85;;;2.63;;
19547;SDS011;9919;58.014;11.826;2023-03-19T03:22:41;2.42;;;2.08;;
19547;SDS011;9919;58.014;11.826;2023-03-19T03:24:44;2.60;;;2.05;;
19547;SDS011;9919;58.014;11.826;2023-03-19T03:26:45;2.90;;;2.08;;
19547;SDS011;9919;58.014;11.826;2023-03-19T03:28:48;4.82;;;2.97;;
19547;SDS011;9919;58.014;11.826;2023-03-19T03:30:56;3.78;;;2.13;;
19547;SDS011;9919;58.014;11.826;2023-03-19T03:32:58;3.35;;;2.45;;
19547;SDS011;9919;58.014;11.826;2023-03-19T03:35:00;3.15;;;2.00;;
19547;SDS011;9919;58.014;11.826;2023-03-19T03:37:03;2.90;;;2.47;;
19547;SDS011;9919;58.014;11.826;2023-03-19T03:39:04;1.65;;;1.52;;
19547;SDS011;9919;58.014;11.826;2023-03-19T03:41:06;3.13;;;2.15;;
19547;SDS011;9919;58.014;11.826;2023-03-19T03:43:09;3.50;;;2.15;;
19547;SDS011;9919;58.014;11.826;2023-03-19T03:45:10;7.28;;;2.33;;
19547;SDS011;9919;58.014;11.826;2023-03-19T03:47:13;2.83;;;2.35;;
19547;SDS011;9919;58.014;11.826;2023-03-19T03:49:16;3.42;;;2.05;;
19547;SDS011;9919;58.014;11.826;2023-03-19T03:51:18;5.20;;;2.33;;
19547;SDS011;9919;58.014;11.826;2023-03-19T03:53:21;4.30;;;2.88;;
19547;SDS011;9919;58.014;11.826;2023-03-19T03:55:22;2.67;;;2.38;;
19547;SDS011;9919;58.014;11.826;2023-03-19T03:57:24;3.45;;;2.25;;
19547;SDS011;9919;58.014;11.826;2023-03-19T03:59:26;3.70;;;2.40;;
19547;SDS011;9919;58.014;11.826;2023-03-19T04:01:28;3.28;;;2.15;;
19547;SDS011;9919;58.014;11.826;2023-03-19T04:03:30;2.95;;;2.03;;
19547;SDS011;9919;58.014;11.826;2023-03-19T04:05:31;3.00;;;2.30;;
19547;SDS011;9919;58.014;11.826;2023-03-19T04:07:33;3.70;;;2.08;;
19547;SDS011;9919;58.014;11.826;2023-03-19T04:09:36;2.85;;;2.05;;
19547;SDS011;9919;58.014;11.826;2023-03-19T04:11:37;2.08;;;1.70;;
19547;SDS011;9919;58.014;11.826;2023-03-19T04:13:40;3.17;;;2.70;;
19547;SDS011;9919;58.014;11.826;2023-03-19T04:15:42;3.33;;;2.33;;
19547;SDS011;9919;58.014;11.826;2023-03-19T04:17:44;1.88;;;1.67;;
19547;SDS011;9919;58.014;11.826;2023-03-19T04:19:45;2.55;;;2.13;;
19547;SDS011;9919;58.014;11.826;2023-03-19T04:21:48;3.80;;;2.63;;
19547;SDS011;9919;58.014;11.826;2023-03-19T04:23:51;5.43;;;2.30;;
19547;SDS011;9919;58.014;11.826;2023-03-19T04:25:56;7.03;;;2.03;;
19547;SDS011;9919;58.014;11.826;2023-03-19T04:27:59;2.60;;;1.70;;
19547;SDS011;9919;58.014;11.826;2023-03-19T04:30:02;3.33;;;2.25;;
19547;SDS011;9919;58.014;11.826;2023-03-19T04:32:05;4.68;;;2.40;;
19547;SDS011;9919;58.014;11.826;2023-03-19T04:34:06;2.72;;;1.58;;
19547;SDS011;9919;58.014;11.826;2023-03-19T04:36:07;3.45;;;1.80;;
19547;SDS011;9919;58.014;11.826;2023-03-19T04:38:09;1.85;;;1.58;;
19547;SDS011;9919;58.014;11.826;2023-03-19T04:40:10;1.90;;;1.52;;
19547;SDS011;9919;58.014;11.826;2023-03-19T04:42:12;2.05;;;1.92;;
19547;SDS011;9919;58.014;11.826;2023-03-19T04:44:14;2.20;;;1.90;;
19547;SDS011;9919;58.014;11.826;2023-03-19T04:46:16;4.57;;;1.95;;
19547;SDS011;9919;58.014;11.826;2023-03-19T04:48:18;1.63;;;1.52;;
19547;SDS011;9919;58.014;11.826;2023-03-19T04:50:19;2.35;;;1.48;;
19547;SDS011;9919;58.014;11.826;2023-03-19T04:52:21;2.40;;;2.00;;
19547;SDS011;9919;58.014;11.826;2023-03-19T04:54:23;3.55;;;1.55;;
19547;SDS011;9919;58.014;11.826;2023-03-19T04:56:25;2.08;;;1.58;;
19547;SDS011;9919;58.014;11.826;2023-03-19T04:58:27;1.67;;;1.58;;
19547;SDS011;9919;58.014;11.826;2023-03-19T05:00:29;1.13;;;1.02;;
19547;SDS011;9919;58.014;11.826;2023-03-19T05:02:30;6.53;;;1.63;;
19547;SDS011;9919;58.014;11.826;2023-03-19T05:04:32;1.70;;;1.60;;
19547;SDS011;9919;58.014;11.826;2023-03-19T05:06:33;2.55;;;1.63;;
19547;SDS011;9919;58.014;11.826;2023-03-19T05:08:36;3.03;;;2.10;;
19547;SDS011;9919;58.014;11.826;2023-03-19T05:10:38;1.70;;;1.40;;
19547;SDS011;9919;58.014;11.826;2023-03-19T05:12:40;1.52;;;1.42;;
19547;SDS011;9919;58.014;11.826;2023-03-19T05:14:41;2.15;;;1.67;;
19547;SDS011;9919;58.014;11.826;2023-03-19T05:16:43;3.08;;;1.52;;
19547;SDS011;9919;58.014;11.826;2023-03-19T05:18:44;1.50;;;1.40;;
19547;SDS011;9919;58.014;11.826;2023-03-19T05:20:46;4.55;;;1.67;;
19547;SDS011;9919;58.014;11.826;2023-03-19T05:22:48;5.40;;;1.67;;
19547;SDS011;9919;58.014;11.826;2023-03-19T05:24:51;1.73;;;1.63;;
19547;SDS011;9919;58.014;11.826;2023-03-19T05:26:52;1.80;;;1.60;;
19547;SDS011;9919;58.014;11.826;2023-03-19T05:28:55;1.10;;;1.10;;
19547;SDS011;9919;58.014;11.826;2023-03-19T05:30:56;1.58;;;1.48;;
19547;SDS011;9919;58.014;11.826;2023-03-19T05:32:58;1.75;;;1.55;;
19547;SDS011;9919;58.014;11.826;2023-03-19T05:35:00;1.50;;;1.35;;
19547;SDS011;9919;58.014;11.826;2023-03-19T05:37:01;1.17;;;1.15;;
19547;SDS011;9919;58.014;11.826;2023-03-19T05:39:04;1.58;;;1.48;;
19547;SDS011;9919;58.014;11.826;2023-03-19T05:41:07;4.47;;;1.42;;
19547;SDS011;9919;58.014;11.826;2023-03-19T05:43:09;1.60;;;1.33;;
19547;SDS011;9919;58.014;11.826;2023-03-19T05:45:11;1.35;;;1.08;;
19547;SDS011;9919;58.014;11.826;2023-03-19T05:47:12;0.98;;;0.98;;
19547;SDS011;9919;58.014;11.826;2023-03-19T05:49:14;2.00;;;1.45;;
19547;SDS011;9919;58.014;11.826;2023-03-19T05:51:15;1.45;;;1.35;;
19547;SDS011;9919;58.014;11.826;2023-03-19T05:53:17;1.38;;;1.33;;
19547;SDS011;9919;58.014;11.826;2023-03-19T05:55:18;2.33;;;1.15;;
19547;SDS011;9919;58.014;11.826;2023-03-19T05:57:20;1.08;;;1.05;;
19547;SDS011;9919;58.014;11.826;2023-03-19T05:59:21;1.13;;;1.13;;
19547;SDS011;9919;58.014;11.826;2023-03-19T06:01:22;1.60;;;1.25;;
19547;SDS011;9919;58.014;11.826;2023-03-19T06:03:24;1.50;;;1.30;;
19547;SDS011;9919;58.014;11.826;2023-03-19T06:05:26;1.25;;;1.15;;
19547;SDS011;9919;58.014;11.826;2023-03-19T06:07:28;1.77;;;1.02;;
19547;SDS011;9919;58.014;11.826;2023-03-19T06:09:30;1.35;;;1.10;;
19547;SDS011;9919;58.014;11.826;2023-03-19T06:11:32;1.40;;;1.30;;
19547;SDS011;9919;58.014;11.826;2023-03-19T06:13:33;2.13;;;1.05;;
19547;SDS011;9919;58.014;11.826;2023-03-19T06:15:34;1.58;;;1.15;;
19547;SDS011;9919;58.014;11.826;2023-03-19T06:17:36;2.67;;;1.40;;
19547;SDS011;9919;58.014;11.826;2023-03-19T06:19:38;1.15;;;1.15;;
19547;SDS011;9919;58.014;11.826;2023-03-19T06:21:39;1.45;;;1.23;;
19547;SDS011;9919;58.014;11.826;2023-03-19T06:23:41;1.15;;;1.13;;
19547;SDS011;9919;58.014;11.826;2023-03-19T06:25:42;1.02;;;0.93;;
19547;SDS011;9919;58.014;11.826;2023-03-19T06:27:43;1.48;;;1.17;;
19547;SDS011;9919;58.014;11.826;2023-03-19T06:29:45;1.00;;;1.00;;
19547;SDS011;9919;58.014;11.826;2023-03-19T06:31:46;1.20;;;1.10;;
19547;SDS011;9919;58.014;11.826;2023-03-19T06:33:47;1.00;;;1.00;;
19547;SDS011;9919;58.014;11.826;2023-03-19T06:35:49;1.40;;;1.23;;
19547;SDS011;9919;58.014;11.826;2023-03-19T06:37:52;1.75;;;1.02;;
19547;SDS011;9919;58.014;11.826;2023-03-19T06:39:53;1.33;;;1.10;;
19547;SDS011;9919;58.014;11.826;2023-03-19T06:41:55;0.90;;;0.90;;
19547;SDS011;9919;58.014;11.826;2023-03-19T06:43:57;1.20;;;1.10;;
19547;SDS011;9919;58.014;11.826;2023-03-19T06:45:58;1.20;;;1.20;;
19547;SDS011;9919;58.014;11.826;2023-03-19T06:48:00;0.82;;;0.77;;
19547;SDS011;9919;58.014;11.826;2023-03-19T06:50:02;0.73;;;0.73;;
19547;SDS011;9919;58.014;11.826;2023-03-19T06:52:04;2.25;;;1.20;;
19547;SDS011;9919;58.014;11.826;2023-03-19T06:54:05;0.82;;;0.82;;
19547;SDS011;9919;58.014;11.826;2023-03-19T06:56:07;2.55;;;1.02;;
19547;SDS011;9919;58.014;11.826;2023-03-19T06:58:09;1.08;;;1.08;;
19547;SDS011;9919;58.014;11.826;2023-03-19T07:00:11;0.90;;;0.90;;
19547;SDS011;9919;58.014;11.826;2023-03-19T07:02:13;1.42;;;1.20;;
19547;SDS011;9919;58.014;11.826;2023-03-19T07:04:16;0.63;;;0.63;;
19547;SDS011;9919;58.014;11.826;2023-03-19T07:06:17;1.50;;;0.93;;
19547;SDS011;9919;58.014;11.826;2023-03-19T07:08:19;1.15;;;1.05;;
19547;SDS011;9919;58.014;11.826;2023-03-19T07:10:20;0.95;;;0.95;;
19547;SDS011;9919;58.014;11.826;2023-03-19T07:12:22;0.88;;;0.88;;
19547;SDS011;9919;58.014;11.826;2023-03-19T07:14:26;0.90;;;0.90;;
19547;SDS011;9919;58.014;11.826;2023-03-19T07:16:28;1.00;;;1.00;;
19547;SDS011;9919;58.014;11.826;2023-03-19T07:18:29;0.82;;;0.82;;
19547;SDS011;9919;58.014;11.826;2023-03-19T07:20:31;0.70;;;0.70;;
19547;SDS011;9919;58.014;11.826;2023-03-19T07:22:34;0.82;;;0.82;;
19547;SDS011;9919;58.014;11.826;2023-03-19T07:24:35;1.05;;;1.00;;
19547;SDS011;9919;58.014;11.826;2023-03-19T07:26:37;0.80;;;0.80;;
19547;SDS011;9919;58.014;11.826;2023-03-19T07:28:38;0.70;;;0.70;;
19547;SDS011;9919;58.014;11.826;2023-03-19T07:30:40;0.63;;;0.63;;
19547;SDS011;9919;58.014;11.826;2023-03-19T07:32:41;1.33;;;1.00;;
19547;SDS011;9919;58.014;11.826;2023-03-19T07:34:43;0.82;;;0.82;;
19547;SDS011;9919;58.014;11.826;2023-03-19T07:36:44;0.68;;;0.68;;
19547;SDS011;9919;58.014;11.826;2023-03-19T07:38:46;0.38;;;0.38;;
19547;SDS011;9919;58.014;11.826;2023-03-19T07:40:48;0.60;;;0.60;;
19547;SDS011;9919;58.014;11.826;2023-03-19T07:42:50;0.68;;;0.60;;
19547;SDS011;9919;58.014;11.826;2023-03-19T07:44:51;1.17;;;0.75;;
19547;SDS011;9919;58.014;11.826;2023-03-19T07:46:54;1.20;;;1.10;;
19547;SDS011;9919;58.014;11.826;2023-03-19T07:48:55;0.77;;;0.77;;
19547;SDS011;9919;58.014;11.826;2023-03-19T07:50:57;0.77;;;0.77;;
19547;SDS011;9919;58.014;11.826;2023-03-19T07:52:58;0.88;;;0.68;;
19547;SDS011;9919;58.014;11.826;2023-03-19T07:55:00;0.70;;;0.70;;
19547;SDS011;9919;58.014;11.826;2023-03-19T07:57:01;1.00;;;0.90;;
19547;SDS011;9919;58.014;11.826;2023-03-19T07:59:02;0.98;;;0.80;;
19547;SDS011;9919;58.014;11.826;2023-03-19T08:01:04;0.60;;;0.60;;
19547;SDS011;9919;58.014;11.826;2023-03-19T08:03:06;0.80;;;0.70;;
19547;SDS011;9919;58.014;11.826;2023-03-19T08:05:07;0.50;;;0.50;;
19547;SDS011;9919;58.014;11.826;2023-03-19T08:07:09;2.50;;;0.70;;
19547;SDS011;9919;58.014;11.826;2023-03-19T08:09:11;0.80;;;0.80;;
19547;SDS011;9919;58.014;11.826;2023-03-19T08:11:13;0.68;;;0.60;;
19547;SDS011;9919;58.014;11.826;2023-03-19T08:13:15;0.73;;;0.73;;
19547;SDS011;9919;58.014;11.826;2023-03-19T08:15:16;0.63;;;0.63;;
19547;SDS011;9919;58.014;11.826;2023-03-19T08:17:18;1.25;;;0.60;;
19547;SDS011;9919;58.014;11.826;2023-03-19T08:19:20;0.70;;;0.57;;
19547;SDS011;9919;58.014;11.826;2023-03-19T08:21:22;0.85;;;0.85;;
19547;SDS011;9919;58.014;11.826;2023-03-19T08:23:23;0.77;;;0.77;;
19547;SDS011;9919;58.014;11.826;2023-03-19T08:25:26;0.73;;;0.73;;
19547;SDS011;9919;58.014;11.826;2023-03-19T08:27:31;0.60;;;0.60;;
19547;SDS011;9919;58.014;11.826;2023-03-19T08:29:34;0.60;;;0.60;;
19547;SDS011;9919;58.014;11.826;2023-03-19T08:31:36;0.90;;;0.70;;
19547;SDS011;9919;58.014;11.826;2023-03-19T08:33:37;0.60;;;0.60;;
19547;SDS011;9919;58.014;11.826;2023-03-19T08:35:39;1.20;;;0.88;;
19547;SDS011;9919;58.014;11.826;2023-03-19T08:37:41;0.77;;;0.77;;
19547;SDS011;9919;58.014;11.826;2023-03-19T08:39:42;0.90;;;0.90;;
19547;SDS011;9919;58.014;11.826;2023-03-19T08:41:44;0.88;;;0.88;;
19547;SDS011;9919;58.014;11.826;2023-03-19T08:43:45;0.50;;;0.50;;
19547;SDS011;9919;58.014;11.826;2023-03-19T08:45:47;1.02;;;0.75;;
19547;SDS011;9919;58.014;11.826;2023-03-19T08:47:50;0.80;;;0.80;;
19547;SDS011;9919;58.014;11.826;2023-03-19T08:49:51;2.38;;;0.50;;
19547;SDS011;9919;58.014;11.826;2023-03-19T08:51:53;3.25;;;0.63;;
19547;SDS011;9919;58.014;11.826;2023-03-19T08:53:55;2.53;;;0.95;;
19547;SDS011;9919;58.014;11.826;2023-03-19T08:55:58;1.20;;;0.82;;
19547;SDS011;9919;58.014;11.826;2023-03-19T08:58:00;1.77;;;0.65;;
19547;SDS011;9919;58.014;11.826;2023-03-19T09:00:03;1.42;;;0.90;;
19547;SDS011;9919;58.014;11.826;2023-03-19T09:02:05;2.63;;;0.65;;
19547;SDS011;9919;58.014;11.826;2023-03-19T09:04:08;3.85;;;0.95;;
19547;SDS011;9919;58.014;11.826;2023-03-19T09:06:11;2.70;;;0.80;;
19547;SDS011;9919;58.014;11.826;2023-03-19T09:08:13;4.40;;;1.48;;
19547;SDS011;9919;58.014;11.826;2023-03-19T09:10:15;5.55;;;1.48;;
19547;SDS011;9919;58.014;11.826;2023-03-19T09:12:16;4.28;;;1.05;;
19547;SDS011;9919;58.014;11.826;2023-03-19T09:14:18;11.18;;;1.15;;
19547;SDS011;9919;58.014;11.826;2023-03-19T09:16:19;4.15;;;0.90;;
19547;SDS011;9919;58.014;11.826;2023-03-19T09:18:21;0.98;;;0.68;;
19547;SDS011;9919;58.014;11.826;2023-03-19T09:20:24;5.35;;;1.15;;
19547;SDS011;9919;58.014;11.826;2023-03-19T09:22:25;6.97;;;1.67;;
19547;SDS011;9919;58.014;11.826;2023-03-19T09:24:27;0.88;;;0.70;;
19547;SDS011;9919;58.014;11.826;2023-03-19T09:26:28;2.28;;;1.60;;
19547;SDS011;9919;58.014;11.826;2023-03-19T09:28:30;4.10;;;0.88;;
19547;SDS011;9919;58.014;11.826;2023-03-19T09:30:31;6.60;;;0.85;;
19547;SDS011;9919;58.014;11.826;2023-03-19T09:32:33;1.20;;;0.90;;
19547;SDS011;9919;58.014;11.826;2023-03-19T09:34:35;1.38;;;0.90;;
19547;SDS011;9919;58.014;11.826;2023-03-19T09:36:37;0.40;;;0.40;;
19547;SDS011;9919;58.014;11.826;2023-03-19T09:38:38;10.40;;;1.80;;
19547;SDS011;9919;58.014;11.826;2023-03-19T09:40:44;5.75;;;0.88;;
19547;SDS011;9919;58.014;11.826;2023-03-19T09:44:56;1.80;;;0.88;;
19547;SDS011;9919;58.014;11.826;2023-03-19T09:49:26;0.82;;;0.80;;
19547;SDS011;9919;58.014;11.826;2023-03-19T09:51:33;4.70;;;0.98;;
19547;SDS011;9919;58.014;11.826;2023-03-19T09:53:39;1.25;;;0.82;;
19547;SDS011;9919;58.014;11.826;2023-03-19T09:55:52;2.47;;;0.73;;
19547;SDS011;9919;58.014;11.826;2023-03-19T09:57:55;3.65;;;0.98;;
19547;SDS011;9919;58.014;11.826;2023-03-19T09:59:57;1.02;;;0.93;;
19547;SDS011;9919;58.014;11.826;2023-03-19T10:04:32;2.42;;;0.90;;
19547;SDS011;9919;58.014;11.826;2023-03-19T10:06:37;1.38;;;0.90;;
19547;SDS011;9919;58.014;11.826;2023-03-19T10:13:37;0.75;;;0.40;;
19547;SDS011;9919;58.014;11.826;2023-03-19T10:15:50;0.60;;;0.60;;
19547;SDS011;9919;58.014;11.826;2023-03-19T10:17:55;1.58;;;0.63;;
19547;SDS011;9919;58.014;11.826;2023-03-19T10:20:02;2.55;;;0.80;;
19547;SDS011;9919;58.014;11.826;2023-03-19T10:22:23;3.70;;;0.68;;
19547;SDS011;9919;58.014;11.826;2023-03-19T10:26:33;0.50;;;0.45;;
19547;SDS011;9919;58.014;11.826;2023-03-19T10:28:35;0.90;;;0.90;;
19547;SDS011;9919;58.014;11.826;2023-03-19T10:30:36;1.20;;;1.10;;
19547;SDS011;9919;58.014;11.826;2023-03-19T10:32:42;1.55;;;0.63;;
19547;SDS011;9919;58.014;11.826;2023-03-19T10:34:49;2.95;;;0.82;;
19547;SDS011;9919;58.014;11.826;2023-03-19T10:39:14;2.08;;;1.00;;
19547;SDS011;9919;58.014;11.826;2023-03-19T10:43:27;2.60;;;1.23;;
19547;SDS011;9919;58.014;11.826;2023-03-19T10:45:31;1.08;;;0.63;;
19547;SDS011;9919;58.014;11.826;2023-03-19T10:47:36;2.67;;;0.73;;
19547;SDS011;9919;58.014;11.826;2023-03-19T10:49:39;2.00;;;0.82;;
19547;SDS011;9919;58.014;11.826;2023-03-19T10:51:46;0.80;;;0.80;;
19547;SDS011;9919;58.014;11.826;2023-03-19T10:53:48;2.08;;;1.00;;
19547;SDS011;9919;58.014;11.826;2023-03-19T10:55:54;0.75;;;0.60;;
19547;SDS011;9919;58.014;11.826;2023-03-19T10:58:04;1.45;;;0.75;;
19547;SDS011;9919;58.014;11.826;2023-03-19T11:00:15;0.82;;;0.68;;
19547;SDS011;9919;58.014;11.826;2023-03-19T11:02:21;0.40;;;0.40;;
19547;SDS011;9919;58.014;11.826;2023-03-19T11:04:26;0.63;;;0.63;;
19547;SDS011;9919;58.014;11.826;2023-03-19T11:06:32;2.75;;;0.65;;
19547;SDS011;9919;58.014;11.826;2023-03-19T11:08:35;0.60;;;0.60;;
19547;SDS011;9919;58.014;11.826;2023-03-19T11:10:42;1.75;;;0.88;;
19547;SDS011;9919;58.014;11.826;2023-03-19T11:12:54;3.28;;;0.68;;
19547;SDS011;9919;58.014;11.826;2023-03-19T11:14:57;1.25;;;0.95;;
19547;SDS011;9919;58.014;11.826;2023-03-19T11:17:13;1.00;;;0.60;;
19547;SDS011;9919;58.014;11.826;2023-03-19T11:19:20;0.55;;;0.55;;
19547;SDS011;9919;58.014;11.826;2023-03-19T11:21:29;0.30;;;0.30;;
19547;SDS011;9919;58.014;11.826;2023-03-19T11:23:41;0.82;;;0.70;;
19547;SDS011;9919;58.014;11.826;2023-03-19T11:25:46;0.70;;;0.70;;
19547;SDS011;9919;58.014;11.826;2023-03-19T11:28:04;2.08;;;0.80;;
19547;SDS011;9919;58.014;11.826;2023-03-19T11:30:17;3.30;;;0.60;;
19547;SDS011;9919;58.014;11.826;2023-03-19T11:52:22;1.05;;;0.95;;
19547;SDS011;9919;58.014;11.826;2023-03-19T11:57:17;0.65;;;0.65;;
19547;SDS011;9919;58.014;11.826;2023-03-19T11:59:37;0.60;;;0.60;;
19547;SDS011;9919;58.014;11.826;2023-03-19T12:06:52;2.10;;;0.80;;
19547;SDS011;9919;58.014;11.826;2023-03-19T12:21:39;0.73;;;0.73;;
19547;SDS011;9919;58.014;11.826;2023-03-19T12:23:52;1.45;;;0.73;;
19547;SDS011;9919;58.014;11.826;2023-03-19T12:29:03;1.70;;;0.50;;
19547;SDS011;9919;58.014;11.826;2023-03-19T12:31:26;2.13;;;0.80;;
19547;SDS011;9919;58.014;11.826;2023-03-19T12:33:48;0.70;;;0.70;;
19547;SDS011;9919;58.014;11.826;2023-03-19T12:35:52;0.50;;;0.50;;
19547;SDS011;9919;58.014;11.826;2023-03-19T12:37:57;0.60;;;0.60;;
19547;SDS011;9919;58.014;11.826;2023-03-19T12:42:33;0.52;;;0.52;;
19547;SDS011;9919;58.014;11.826;2023-03-19T12:44:39;1.45;;;0.80;;
19547;SDS011;9919;58.014;11.826;2023-03-19T12:48:55;0.95;;;0.47;;
19547;SDS011;9919;58.014;11.826;2023-03-19T12:51:04;2.58;;;0.52;;
19547;SDS011;9919;58.014;11.826;2023-03-19T12:53:10;0.80;;;0.80;;
19547;SDS011;9919;58.014;11.826;2023-03-19T12:55:21;3.03;;;0.75;;
19547;SDS011;9919;58.014;11.826;2023-03-19T13:02:23;0.95;;;0.70;;
19547;SDS011;9919;58.014;11.826;2023-03-19T13:04:30;0.73;;;0.73;;
19547;SDS011;9919;58.014;11.826;2023-03-19T13:06:35;0.68;;;0.68;;
19547;SDS011;9919;58.014;11.826;2023-03-19T13:08:43;0.55;;;0.55;;
19547;SDS011;9919;58.014;11.826;2023-03-19T13:10:49;0.50;;;0.50;;
19547;SDS011;9919;58.014;11.826;2023-03-19T13:12:50;0.60;;;0.60;;
19547;SDS011;9919;58.014;11.826;2023-03-19T13:21:30;0.65;;;0.65;;
19547;SDS011;9919;58.014;11.826;2023-03-19T13:23:33;0.85;;;0.55;;
19547;SDS011;9919;58.014;11.826;2023-03-19T13:25:38;0.70;;;0.70;;
19547;SDS011;9919;58.014;11.826;2023-03-19T13:27:42;0.73;;;0.52;;
19547;SDS011;9919;58.014;11.826;2023-03-19T13:33:18;1.75;;;0.65;;
19547;SDS011;9919;58.014;11.826;2023-03-19T13:34:50;0.85;;;0.63;;
19547;SDS011;9919;58.014;11.826;2023-03-19T13:37:17;0.68;;;0.57;;
19547;SDS011;9919;58.014;11.826;2023-03-19T13:39:22;0.55;;;0.55;;
19547;SDS011;9919;58.014;11.826;2023-03-19T13:45:37;1.35;;;0.73;;
19547;SDS011;9919;58.014;11.826;2023-03-19T13:47:39;0.60;;;0.60;;
19547;SDS011;9919;58.014;11.826;2023-03-19T13:50:00;0.63;;;0.50;;
19547;SDS011;9919;58.014;11.826;2023-03-19T13:54:16;0.70;;;0.70;;